Forside
METAR-TAF:

METAR-TAF

Lufthavne :

Esbjerg Lufthavn

Esbjerg, Danmark

Breddekreds: 55-32N, længdekreds: 008-34E, højde: 30 m

Aktuelle vejr

Denne rapport blev lavet for 25 minutter siden, kl. 09:50 UTC
Vind 10 kt fra vestsydvest
Temperatur 24°C
Fugtighed 78%
Tryk 1006 hPa
Sigt 10 km eller mere

METAR: EKEB 160950Z AUTO 25010KT 9999 FEW013/// FEW062/// 24/20 Q1006

Tid: 12:15 (10:15 UTC)

Vejrudsigter

Denne rapport blev lavet for 1 time og 53 minutter siden, kl. 08:22 UTC
Foreløbig gælder fra 16 på 09 UTC til 16 på 18 UTC
Vind 10 kt fra vestsydvest
Sigt 10 km eller mere
Spredte skyer i en højde af 2000 ft
Midlertidig
fra 16 på 09 UTC til 16 på 10 UTC
Brudte skyer i en højde af 1200 ft
Spredte skyer i en højde af 3000 ft, Cumulonimbus.
regnbyger
Midlertidig
fra 16 på 10 UTC til 16 på 14 UTC
Spredte skyer i en højde af 3000 ft, Cumulonimbus.

TAF: EKEB 160822Z 1609/1618 24010KT 9999 SCT020 TEMPO 1609/1610 SHRA BKN012 SCT030CB TEMPO 1610/1614 SCT030CB

Vejrobservationer og prognoser fra mere end 4000 lufthavne (METAR og TAF).

De gule og røde prikker repræsenterer de meteorologiske stationer.

Flyt musen over at se navnet på stationen.

Så klik over at se vejr observationer og prognoser.

At skifte det kort: Klik på de grønne knapper med et sort kors for at zoome ind; på den grønne knap med en bindestreg for at zoome ud; eller på de grønne pile for tilstødende kort.


METAR-TAF: